createdAt,value
2019-05-07T00:01:19.859Z,98733.17
2019-05-07T00:04:47.184Z,98732.85
2019-05-07T00:08:13.089Z,98736.64
2019-05-07T00:11:38.758Z,98739.64
2019-05-07T00:15:06.688Z,98728.19
2019-05-07T00:18:32.460Z,98725.38
2019-05-07T00:22:02.384Z,98725.44
2019-05-07T00:25:27.535Z,98719.14
2019-05-07T00:28:53.125Z,98721.90
2019-05-07T00:32:18.735Z,98718.55
2019-05-07T00:35:48.857Z,98718.05
2019-05-07T00:39:29.151Z,98725.67
2019-05-07T00:43:14.662Z,98723.00
2019-05-07T00:46:42.609Z,98723.11
2019-05-07T00:50:09.928Z,98721.64
2019-05-07T00:53:35.519Z,98716.81
2019-05-07T00:57:03.129Z,98710.39
2019-05-07T01:00:28.422Z,98715.17
2019-05-07T01:03:54.006Z,98717.82
2019-05-07T01:07:19.598Z,98710.25
2019-05-07T01:10:45.186Z,98712.53
2019-05-07T01:14:12.375Z,98710.23
2019-05-07T01:17:38.149Z,98717.06
2019-05-07T01:21:04.239Z,98711.66
2019-05-07T01:24:32.072Z,98714.45
2019-05-07T01:27:57.107Z,98716.13
2019-05-07T01:31:22.717Z,98718.46
2019-05-07T01:34:52.344Z,98707.27
2019-05-07T01:38:19.271Z,98707.03
2019-05-07T01:41:46.841Z,98705.42
2019-05-07T01:45:14.598Z,98706.67
2019-05-07T01:48:40.189Z,98709.17
2019-05-07T01:52:05.773Z,98711.08
2019-05-07T01:55:31.926Z,98717.42
2019-05-07T01:58:57.550Z,98712.70
2019-05-07T02:02:27.640Z,98719.04
2019-05-07T02:06:10.269Z,98721.90
2019-05-07T02:09:42.335Z,98720.36
2019-05-07T02:13:07.368Z,98720.58
2019-05-07T02:16:32.958Z,98716.98
2019-05-07T02:19:58.965Z,98715.03
2019-05-07T02:23:24.547Z,98719.26
2019-05-07T02:26:52.033Z,98717.94
2019-05-07T02:30:17.866Z,98716.51
2019-05-07T02:33:43.838Z,98711.23
2019-05-07T02:37:11.184Z,98708.17
2019-05-07T02:40:38.766Z,98699.89
2019-05-07T02:44:04.641Z,98701.98
2019-05-07T02:47:33.123Z,98699.23
2019-05-07T02:51:03.878Z,98696.33
2019-05-07T02:54:33.524Z,98703.30
2019-05-07T02:57:59.136Z,98704.84
2019-05-07T03:01:24.788Z,98702.20
2019-05-07T03:04:53.270Z,98699.30
2019-05-07T03:08:18.062Z,98705.53
2019-05-07T03:11:43.746Z,98703.52
2019-05-07T03:15:09.512Z,98698.50
2019-05-07T03:18:35.269Z,98705.53
2019-05-07T03:22:03.755Z,98700.98
2019-05-07T03:25:43.126Z,98701.67
2019-05-07T03:29:13.114Z,98700.61
2019-05-07T03:32:46.728Z,98695.48
2019-05-07T03:36:15.910Z,98690.53
2019-05-07T03:39:37.273Z,98689.31
2019-05-07T03:43:06.110Z,98693.06
2019-05-07T03:46:33.543Z,98685.25
2019-05-07T03:49:57.898Z,98677.00
2019-05-07T03:53:23.688Z,98672.83
2019-05-07T03:56:49.209Z,98670.14
2019-05-07T04:00:15.447Z,98671.83
2019-05-07T04:03:43.980Z,98675.58
2019-05-07T04:07:08.422Z,98672.42
2019-05-07T04:10:34.161Z,98678.17
2019-05-07T04:14:02.298Z,98679.34
2019-05-07T04:17:27.427Z,98676.70
2019-05-07T04:20:54.893Z,98678.11
2019-05-07T04:24:25.794Z,98677.22
2019-05-07T04:28:00.109Z,98683.23
2019-05-07T04:31:27.329Z,98678.94
2019-05-07T04:35:00.249Z,98678.89
2019-05-07T04:38:25.838Z,98686.73
2019-05-07T04:41:53.035Z,98687.22
2019-05-07T04:45:19.016Z,98683.98
2019-05-07T04:48:44.761Z,98682.36
2019-05-07T04:52:15.100Z,98680.50
2019-05-07T04:55:42.841Z,98676.80
2019-05-07T04:59:07.391Z,98671.12
2019-05-07T05:02:52.950Z,98680.42
2019-05-07T05:06:18.326Z,98670.61
2019-05-07T05:09:43.920Z,98671.95
2019-05-07T05:13:09.499Z,98673.13
2019-05-07T05:16:35.204Z,98676.08
2019-05-07T05:20:04.228Z,98671.80
2019-05-07T05:23:34.604Z,98671.75
2019-05-07T05:27:02.455Z,98676.98
2019-05-07T05:30:32.579Z,98673.30
2019-05-07T05:33:57.836Z,98670.73
2019-05-07T05:37:23.415Z,98666.14
2019-05-07T05:40:49.004Z,98662.68
2019-05-07T05:44:19.200Z,98662.08
2019-05-07T05:47:44.962Z,98662.36
2019-05-07T05:51:17.997Z,98660.44
2019-05-07T05:54:45.221Z,98662.84
2019-05-07T05:58:18.200Z,98655.98
2019-05-07T06:01:52.153Z,98658.49
2019-05-07T06:05:35.457Z,98659.11
2019-05-07T06:09:02.681Z,98661.74
2019-05-07T06:12:32.833Z,98657.03
2019-05-07T06:16:03.647Z,98661.98
2019-05-07T06:19:38.816Z,98656.19
2019-05-07T06:23:24.382Z,98664.00
2019-05-07T06:26:52.148Z,98661.08
2019-05-07T06:30:22.550Z,98657.78
2019-05-07T06:33:47.864Z,98662.90
2019-05-07T06:37:13.450Z,98662.60
2019-05-07T06:40:51.785Z,98661.94
2019-05-07T06:44:18.539Z,98661.33
2019-05-07T06:47:44.146Z,98659.37
2019-05-07T06:51:09.738Z,98654.05
2019-05-07T06:54:35.324Z,98657.59
2019-05-07T06:58:02.623Z,98649.64
2019-05-07T07:01:45.618Z,98653.41
2019-05-07T07:05:13.462Z,98647.17
2019-05-07T07:08:55.827Z,98648.00
2019-05-07T07:12:28.581Z,98652.47
2019-05-07T07:15:54.972Z,98646.42
2019-05-07T07:19:20.576Z,98645.80
2019-05-07T07:22:46.193Z,98646.80
2019-05-07T07:26:12.933Z,98637.94
2019-05-07T07:29:44.967Z,98645.05
2019-05-07T07:33:13.146Z,98635.66
2019-05-07T07:37:05.051Z,98631.94
2019-05-07T07:40:34.865Z,98626.05
2019-05-07T07:44:02.090Z,98630.59
2019-05-07T07:47:27.892Z,98626.45
2019-05-07T07:50:53.482Z,98625.70
2019-05-07T07:54:19.192Z,98620.13
2019-05-07T07:57:46.428Z,98626.73
2019-05-07T08:01:32.994Z,98631.58
2019-05-07T08:04:58.775Z,98632.65
2019-05-07T08:08:24.376Z,98631.72
2019-05-07T08:11:49.977Z,98623.81
2019-05-07T08:15:21.159Z,98622.52
2019-05-07T08:18:45.668Z,98624.92
2019-05-07T08:22:12.077Z,98622.11
2019-05-07T08:25:52.220Z,98619.67
2019-05-07T08:29:17.283Z,98615.33
2019-05-07T08:32:44.522Z,98614.20
2019-05-07T08:36:15.073Z,98612.99
2019-05-07T08:39:42.744Z,98609.09
2019-05-07T08:43:09.176Z,98606.71
2019-05-07T08:46:36.410Z,98595.78
2019-05-07T08:50:02.867Z,98604.33
2019-05-07T08:53:28.717Z,98597.14
2019-05-07T08:56:54.325Z,98598.27
2019-05-07T09:00:22.381Z,98591.55
2019-05-07T09:03:48.834Z,98593.36
2019-05-07T09:07:14.421Z,98590.37
2019-05-07T09:10:42.146Z,98585.38
2019-05-07T09:14:07.872Z,98575.73
2019-05-07T09:17:33.515Z,98578.97
2019-05-07T09:20:59.414Z,98564.95
2019-05-07T09:24:25.032Z,98567.51
2019-05-07T09:27:52.475Z,98558.92
2019-05-07T09:31:20.076Z,98558.76
2019-05-07T09:34:47.649Z,98545.23
2019-05-07T09:38:13.321Z,98546.40
2019-05-07T09:41:38.912Z,98549.34
2019-05-07T09:45:07.284Z,98540.05
2019-05-07T09:48:33.822Z,98536.70
2019-05-07T09:51:59.605Z,98530.82
2019-05-07T09:55:25.201Z,98524.14
2019-05-07T09:58:52.928Z,98533.66
2019-05-07T10:02:19.226Z,98531.75
2019-05-07T10:05:44.826Z,98528.94
2019-05-07T10:09:12.068Z,98521.58
2019-05-07T10:12:39.315Z,98520.22
2019-05-07T10:16:07.695Z,98517.30
2019-05-07T10:19:33.038Z,98516.92
2019-05-07T10:22:58.996Z,98512.11
2019-05-07T10:26:25.430Z,98513.29
2019-05-07T10:29:54.215Z,98517.39
2019-05-07T10:33:20.018Z,98515.79
2019-05-07T10:36:45.710Z,98510.71
2019-05-07T10:40:12.733Z,98504.17
2019-05-07T10:43:39.018Z,98506.03
2019-05-07T10:47:22.760Z,98505.61
2019-05-07T10:50:52.674Z,98503.78
2019-05-07T10:54:18.336Z,98510.47
2019-05-07T10:57:44.315Z,98508.10
2019-05-07T11:01:12.049Z,98505.52
2019-05-07T11:04:42.114Z,98498.59
2019-05-07T11:08:06.217Z,98492.58
2019-05-07T11:11:31.995Z,98491.42
2019-05-07T11:14:58.678Z,98480.88
2019-05-07T11:18:24.116Z,98482.03
2019-05-07T11:21:52.001Z,98482.50
2019-05-07T11:25:17.330Z,98479.17
2019-05-07T11:28:43.448Z,98477.48
2019-05-07T11:32:09.005Z,98472.96
2019-05-07T11:35:34.648Z,98466.30
2019-05-07T11:39:02.185Z,98470.13
2019-05-07T11:42:47.218Z,98466.14
2019-05-07T11:46:14.448Z,98458.23
2019-05-07T11:49:57.880Z,98462.95
2019-05-07T11:53:25.357Z,98452.05
2019-05-07T11:56:52.276Z,98439.66
2019-05-07T12:00:21.933Z,98437.55
2019-05-07T12:03:47.565Z,98438.87
2019-05-07T12:07:13.184Z,98427.11
2019-05-07T12:10:39.046Z,98426.48
2019-05-07T12:14:05.246Z,98419.42
2019-05-07T12:17:31.914Z,98414.66
2019-05-07T12:20:57.556Z,98405.55
2019-05-07T12:24:23.415Z,98405.08
2019-05-07T12:27:52.733Z,98393.95
2019-05-07T12:31:36.656Z,98395.09
2019-05-07T12:35:03.908Z,98388.91
2019-05-07T12:38:29.574Z,98392.06
2019-05-07T12:41:55.230Z,98378.31
2019-05-07T12:45:22.818Z,98384.19
2019-05-07T12:48:48.563Z,98381.83
2019-05-07T12:52:18.559Z,98374.97
2019-05-07T12:55:48.655Z,98370.27
2019-05-07T12:59:15.340Z,98368.31
2019-05-07T13:02:45.516Z,98365.67
2019-05-07T13:06:12.522Z,98362.24
2019-05-07T13:09:38.381Z,98357.50
2019-05-07T13:13:05.013Z,98345.38
2019-05-07T13:16:32.363Z,98339.86
2019-05-07T13:19:58.145Z,98327.11
2019-05-07T13:23:23.813Z,98344.17
2019-05-07T13:26:51.673Z,98342.72
2019-05-07T13:30:18.091Z,98332.57
2019-05-07T13:33:45.986Z,98324.57
2019-05-07T13:37:14.664Z,98323.32
2019-05-07T13:40:56.941Z,98321.77
2019-05-07T13:44:24.350Z,98316.09
2019-05-07T13:47:54.309Z,98299.56
2019-05-07T13:51:21.693Z,98297.95
2019-05-07T13:54:47.338Z,98299.97
2019-05-07T13:58:14.326Z,98291.89
2019-05-07T14:01:50.411Z,98289.31
2019-05-07T14:05:17.174Z,98291.81
2019-05-07T14:08:44.419Z,98288.02
2019-05-07T14:12:12.348Z,98280.41
2019-05-07T14:15:37.807Z,98275.70
2019-05-07T14:19:04.308Z,98267.45
2019-05-07T14:22:31.819Z,98264.20
2019-05-07T14:25:57.608Z,98257.38
2019-05-07T14:29:24.857Z,98236.23
2019-05-07T14:33:09.465Z,98251.69
2019-05-07T14:36:38.411Z,98242.70
2019-05-07T14:40:07.732Z,98241.39
2019-05-07T14:43:34.991Z,98246.09
2019-05-07T14:47:02.388Z,98239.49
2019-05-07T14:50:28.356Z,98235.33
2019-05-07T14:53:54.116Z,98230.38
2019-05-07T14:57:21.958Z,98222.38
2019-05-07T15:00:47.013Z,98223.78
2019-05-07T15:04:13.039Z,98213.39
2019-05-07T15:07:39.478Z,98195.16
2019-05-07T15:11:05.316Z,98196.38
2019-05-07T15:14:31.864Z,98193.17
2019-05-07T15:18:00.634Z,98192.72
2019-05-07T15:21:27.096Z,98185.08
2019-05-07T15:24:52.693Z,98184.21
2019-05-07T15:28:19.857Z,98186.63
2019-05-07T15:32:03.418Z,98183.46
2019-05-07T15:35:29.247Z,98182.32
2019-05-07T15:38:54.848Z,98181.72
2019-05-07T15:42:22.216Z,98180.64
2019-05-07T15:45:47.891Z,98175.91
2019-05-07T15:49:13.535Z,98171.79
2019-05-07T15:52:57.698Z,98158.92
2019-05-07T15:56:14.207Z,98163.00
2019-05-07T15:59:41.796Z,98153.67
2019-05-07T16:03:14.962Z,98154.33
2019-05-07T16:06:42.436Z,98146.15
2019-05-07T16:10:08.601Z,98154.52
2019-05-07T16:13:35.839Z,98153.88
2019-05-07T16:17:03.126Z,98149.37
2019-05-07T16:20:28.716Z,98141.36
2019-05-07T16:23:55.717Z,98139.88
2019-05-07T16:27:22.428Z,98136.14
2019-05-07T16:30:48.118Z,98135.52
2019-05-07T16:34:13.721Z,98130.97
2019-05-07T16:37:39.480Z,98124.06
2019-05-07T16:41:05.071Z,98123.87
2019-05-07T16:44:32.992Z,98119.44
2019-05-07T16:48:00.403Z,98111.77
2019-05-07T16:51:26.254Z,98111.08
2019-05-07T16:54:52.305Z,98108.58
2019-05-07T16:58:23.614Z,98103.09
2019-05-07T17:01:49.209Z,98106.31
2019-05-07T17:05:16.997Z,98097.94
2019-05-07T17:08:44.444Z,98100.97
2019-05-07T17:12:11.693Z,98092.88
2019-05-07T17:15:56.875Z,98089.95
2019-05-07T17:19:22.572Z,98089.72
2019-05-07T17:22:48.179Z,98088.00
2019-05-07T17:26:14.057Z,98082.63
2019-05-07T17:29:39.653Z,98083.28
2019-05-07T17:33:07.315Z,98088.49
2019-05-07T17:36:33.213Z,98087.76
2019-05-07T17:39:58.892Z,98095.22
2019-05-07T17:43:24.557Z,98093.38
2019-05-07T17:46:51.869Z,98094.63
2019-05-07T17:50:19.441Z,98098.58
2019-05-07T17:53:56.728Z,98093.51
2019-05-07T17:57:15.826Z,98094.13
2019-05-07T18:00:42.293Z,98090.59
2019-05-07T18:04:07.927Z,98079.17
2019-05-07T18:07:33.551Z,98080.37
2019-05-07T18:11:02.033Z,98086.52
2019-05-07T18:14:27.148Z,98081.00
2019-05-07T18:17:54.448Z,98074.48
2019-05-07T18:21:22.019Z,98076.91
2019-05-07T18:24:47.815Z,98070.61
2019-05-07T18:28:16.180Z,98063.19
2019-05-07T18:31:43.475Z,98062.68
2019-05-07T18:35:09.415Z,98067.69
2019-05-07T18:38:35.012Z,98061.62
2019-05-07T18:42:02.759Z,98059.95
2019-05-07T18:45:28.570Z,98055.14
2019-05-07T18:48:54.907Z,98061.95
2019-05-07T18:52:22.814Z,98052.34
2019-05-07T18:55:48.299Z,98049.39
2019-05-07T18:59:17.996Z,98051.83
2019-05-07T19:02:42.726Z,98044.02
2019-05-07T19:06:08.527Z,98041.28
2019-05-07T19:09:34.157Z,98035.86
2019-05-07T19:12:59.870Z,98040.00
2019-05-07T19:16:25.562Z,98044.84
2019-05-07T19:19:52.524Z,98041.05
2019-05-07T19:23:18.238Z,98032.75
2019-05-07T19:26:43.847Z,98031.29
2019-05-07T19:30:12.558Z,98022.45
2019-05-07T19:33:38.294Z,98017.45
2019-05-07T19:37:03.899Z,98017.77
2019-05-07T19:40:29.566Z,98030.45
2019-05-07T19:43:55.235Z,98024.44
2019-05-07T19:47:23.084Z,98024.42
2019-05-07T19:50:48.279Z,98014.94
2019-05-07T19:54:13.874Z,98020.09
2019-05-07T19:57:42.638Z,98025.13
2019-05-07T20:01:11.982Z,98018.45
2019-05-07T20:04:37.131Z,98020.11
2019-05-07T20:08:04.722Z,98021.63
2019-05-07T20:11:31.977Z,98014.44
2019-05-07T20:14:57.568Z,98012.09
2019-05-07T20:18:23.231Z,98009.78
2019-05-07T20:21:48.826Z,98000.73
2019-05-07T20:25:18.913Z,97992.38
2019-05-07T20:28:42.343Z,97984.52
2019-05-07T20:32:08.653Z,97988.20
2019-05-07T20:35:37.328Z,97990.36
2019-05-07T20:39:02.378Z,97988.99
2019-05-07T20:42:29.683Z,97985.62
2019-05-07T20:45:55.405Z,97983.95
2019-05-07T20:49:22.536Z,97985.28
2019-05-07T20:52:48.296Z,97980.92
2019-05-07T20:56:15.352Z,97976.91
2019-05-07T20:59:41.631Z,97970.19
2019-05-07T21:03:23.911Z,97975.40
2019-05-07T21:06:52.452Z,97971.00
2019-05-07T21:10:17.839Z,97972.16
2019-05-07T21:13:44.644Z,97965.58
2019-05-07T21:17:11.915Z,97960.08
2019-05-07T21:20:37.803Z,97960.06
2019-05-07T21:24:03.613Z,97953.50
2019-05-07T21:27:29.224Z,97955.12
2019-05-07T21:30:54.844Z,97949.05
2019-05-07T21:34:22.820Z,97941.98
2019-05-07T21:37:47.763Z,97931.91
2019-05-07T21:41:13.385Z,97932.72
2019-05-07T21:44:38.983Z,97921.16
2019-05-07T21:48:04.663Z,97921.43
2019-05-07T21:51:30.264Z,97912.69
2019-05-07T21:54:57.601Z,97906.17
2019-05-07T21:58:27.606Z,97916.91
2019-05-07T22:01:54.854Z,97912.89
2019-05-07T22:05:22.520Z,97910.88
2019-05-07T22:08:48.171Z,97908.94
2019-05-07T22:12:13.781Z,97907.45
2019-05-07T22:15:39.581Z,97901.80
2019-05-07T22:19:05.410Z,97892.25
2019-05-07T22:22:32.046Z,97890.27
2019-05-07T22:25:58.025Z,97885.60
2019-05-07T22:29:25.258Z,97885.84
2019-05-07T22:32:58.206Z,97882.47
2019-05-07T22:36:23.813Z,97880.06
2019-05-07T22:39:54.257Z,97874.70
2019-05-07T22:43:22.602Z,97872.36
2019-05-07T22:46:48.449Z,97870.89
2019-05-07T22:50:14.113Z,97873.35
2019-05-07T22:53:39.704Z,97872.86
2019-05-07T22:57:06.934Z,97868.73
2019-05-07T23:00:34.167Z,97865.16
2019-05-07T23:04:00.056Z,97855.64
2019-05-07T23:07:25.666Z,97856.82
2019-05-07T23:10:52.593Z,97842.91
2019-05-07T23:14:18.358Z,97834.60
2019-05-07T23:17:43.965Z,97831.03
2019-05-07T23:21:09.567Z,97833.88
2019-05-07T23:24:35.161Z,97825.23
2019-05-07T23:28:04.897Z,97818.75
2019-05-07T23:31:28.045Z,97815.23
2019-05-07T23:34:53.659Z,97820.84
2019-05-07T23:38:19.366Z,97812.19
2019-05-07T23:41:46.612Z,97807.15
2019-05-07T23:45:12.628Z,97806.31
2019-05-07T23:48:38.237Z,97797.64
2019-05-07T23:52:03.819Z,97794.45
2019-05-07T23:55:31.700Z,97789.14
2019-05-07T23:58:56.738Z,97784.78
